Time;durP1;ratioP1;P1;durP2;ratioP2;P2;SDS_P1;SDS_P2;PMS_P1;PMS_P2;Temp;Humidity;BMP_temperature;BMP_pressure;BME280_temperature;BME280_humidity;BME280_pressure;Samples;Min_cycle;Max_cycle;Signal;HPM_P1;HPM_P2
2023/08/10 00:03:35;;;;;;;12.50;4.30;;;11.80;1.00;;;;;;5052611;28;20237;-80
2023/08/10 00:12:44;;;;;;;13.37;4.37;;;11.70;1.00;;;;;;5054373;28;20406;-80
2023/08/10 00:21:54;;;;;;;10.03;4.90;;;11.60;1.00;;;;;;5055063;28;20402;-78
2023/08/10 00:24:20;;;;;;;20.43;6.30;;;11.60;1.00;;;;;;5045542;28;20430;-78
2023/08/10 00:26:46;;;;;;;14.23;5.27;;;11.70;1.00;;;;;;5044833;28;20591;-79
2023/08/10 00:29:11;;;;;;;9.70;4.90;;;11.60;1.00;;;;;;5040792;28;20191;-80
2023/08/10 00:31:42;;;;;;;10.83;4.77;;;11.70;1.00;;;;;;5042525;28;20435;-80
2023/08/10 00:34:18;;;;;;;22.73;5.63;;;11.60;1.00;;;;;;5050338;28;20591;-81
2023/08/10 00:37:30;;;;;;;12.40;5.10;;;11.60;1.00;;;;;;5053054;28;20961;-80
2023/08/10 00:40:18;;;;;;;10.00;4.50;;;11.60;1.00;;;;;;5053741;28;20511;-80
2023/08/10 00:46:09;;;;;;;5.90;4.40;;;11.50;1.00;;;;;;5047981;28;20472;-80
2023/08/10 00:49:24;;;;;;;22.73;6.43;;;11.50;1.00;;;;;;5052346;28;20426;-80
2023/08/10 00:55:36;;;;;;;20.47;5.40;;;11.50;1.00;;;;;;5053051;28;21021;-80
2023/08/10 00:58:19;;;;;;;6.10;4.63;;;11.50;1.00;;;;;;5041366;28;20418;-80
2023/08/10 01:04:54;;;;;;;10.20;4.90;;;11.40;1.00;;;;;;5045879;28;20508;-79
2023/08/10 01:07:38;;;;;;;10.40;4.70;;;11.40;1.00;;;;;;5040354;28;20437;-80
2023/08/10 01:10:34;;;;;;;12.37;4.73;;;11.30;1.00;;;;;;5052277;28;20539;-79
2023/08/10 01:13:30;;;;;;;8.10;4.77;;;11.30;1.00;;;;;;5053935;28;20790;-80
2023/08/10 01:23:04;;;;;;;12.50;5.50;;;11.30;1.00;;;;;;5040788;28;20373;-78
2023/08/10 01:25:30;;;;;;;16.10;4.87;;;11.30;1.00;;;;;;5050599;28;20470;-78
2023/08/10 01:28:12;;;;;;;7.53;5.03;;;11.30;1.00;;;;;;5054201;28;20395;-79
2023/08/10 01:30:40;;;;;;;27.53;6.10;;;11.40;1.00;;;;;;5043877;28;20425;-79
2023/08/10 01:36:27;;;;;;;8.03;4.67;;;11.50;1.00;;;;;;5047936;28;20409;-80
2023/08/10 01:39:32;;;;;;;14.00;4.60;;;11.60;1.00;;;;;;5039854;28;20919;-79
2023/08/10 01:42:00;;;;;;;18.93;5.17;;;11.60;1.00;;;;;;5046996;28;20186;-80
2023/08/10 01:44:30;;;;;;;18.80;4.57;;;11.70;1.00;;;;;;5046971;28;20416;-80
2023/08/10 01:47:36;;;;;;;17.87;4.40;;;11.80;1.00;;;;;;5044882;28;20867;-79
2023/08/10 01:50:26;;;;;;;6.03;4.07;;;11.80;1.00;;;;;;5053158;28;20798;-78
2023/08/10 01:53:30;;;;;;;10.83;3.83;;;11.90;1.00;;;;;;5053888;28;20725;-78
2023/08/10 01:56:30;;;;;;;9.40;4.17;;;12.00;1.00;;;;;;5053430;28;20433;-78
2023/08/10 01:59:06;;;;;;;20.13;5.57;;;12.10;1.00;;;;;;5053383;28;20414;-78
2023/08/10 02:05:36;;;;;;;6.90;4.37;;;12.10;1.00;;;;;;5042021;28;20750;-80
2023/08/10 02:08:01;;;;;;;11.20;4.93;;;12.30;1.00;;;;;;5048676;28;20449;-80
2023/08/10 02:11:00;;;;;;;17.73;4.60;;;12.30;1.00;;;;;;5053430;28;20456;-80
2023/08/10 02:13:48;;;;;;;11.03;4.60;;;12.30;1.00;;;;;;5053633;28;20180;-79
2023/08/10 02:16:30;;;;;;;15.80;4.73;;;12.30;1.00;;;;;;5042721;28;20476;-78
2023/08/10 02:19:00;;;;;;;8.60;4.20;;;12.40;1.00;;;;;;5047483;28;20992;-78
2023/08/10 02:21:36;;;;;;;6.57;4.00;;;12.40;1.00;;;;;;5053134;28;20430;-78
2023/08/10 02:27:50;;;;;;;12.60;4.80;;;12.40;1.00;;;;;;5055426;28;21028;-78
2023/08/10 02:30:30;;;;;;;16.80;5.63;;;12.40;1.00;;;;;;5057616;28;20927;-79
2023/08/10 02:33:30;;;;;;;4.90;4.20;;;12.40;1.00;;;;;;5043050;28;20415;-80
2023/08/10 02:43:00;;;;;;;11.00;4.73;;;12.40;1.00;;;;;;5037921;28;20487;-79
2023/08/10 02:45:30;;;;;;;12.13;4.27;;;12.40;1.00;;;;;;5056228;28;20497;-79
2023/08/10 02:48:30;;;;;;;14.33;5.90;;;12.40;1.00;;;;;;5056035;28;20469;-79
2023/08/10 02:51:30;;;;;;;13.37;4.60;;;12.40;1.00;;;;;;5055938;28;20413;-79
2023/08/10 02:54:24;;;;;;;12.63;4.50;;;12.30;1.00;;;;;;5049021;28;20436;-80
2023/08/10 02:56:50;;;;;;;11.27;5.80;;;12.30;1.00;;;;;;5044604;28;20434;-80
2023/08/10 02:59:15;;;;;;;28.10;7.40;;;12.30;1.00;;;;;;5043568;28;20445;-81
2023/08/10 03:01:41;;;;;;;20.07;7.00;;;12.30;1.00;;;;;;5048510;28;20195;-79
2023/08/10 03:04:24;;;;;;;13.53;7.37;;;12.20;1.00;;;;;;5056434;28;20219;-78
2023/08/10 03:07:01;;;;;;;17.37;6.73;;;12.20;1.00;;;;;;5054681;28;20203;-78
2023/08/10 03:10:00;;;;;;;19.70;7.87;;;12.30;1.00;;;;;;5053869;28;20454;-78
2023/08/10 03:13:00;;;;;;;19.33;7.37;;;12.30;1.00;;;;;;5052544;28;20461;-78
2023/08/10 03:16:00;;;;;;;13.83;6.00;;;12.30;1.00;;;;;;5055330;28;20465;-77
2023/08/10 03:19:00;;;;;;;103.83;26.43;;;12.30;1.00;;;;;;5056082;28;20436;-78
2023/08/10 03:22:00;;;;;;;19.00;6.30;;;12.40;1.00;;;;;;5048694;28;20484;-77
2023/08/10 03:24:30;;;;;;;13.70;6.90;;;12.40;1.00;;;;;;5048035;28;20430;-77
2023/08/10 03:27:06;;;;;;;30.33;8.80;;;12.40;1.00;;;;;;5047607;28;20453;-77
2023/08/10 03:29:36;;;;;;;19.17;7.50;;;12.50;1.00;;;;;;5060394;28;20788;-77
2023/08/10 03:32:30;;;;;;;18.50;8.63;;;12.50;1.00;;;;;;5056415;28;20781;-78
2023/08/10 03:35:30;;;;;;;17.37;8.20;;;12.50;1.00;;;;;;5056164;28;20509;-78
2023/08/10 03:38:30;;;;;;;16.43;7.80;;;12.50;1.00;;;;;;5054847;28;20421;-77
2023/08/10 03:41:00;;;;;;;25.40;8.67;;;12.60;1.00;;;;;;5055460;28;20520;-77
2023/08/10 03:43:26;;;;;;;27.60;8.50;;;12.50;1.00;;;;;;5059259;28;20814;-77
2023/08/10 03:49:30;;;;;;;15.53;7.27;;;12.50;1.00;;;;;;5055291;28;20795;-77
2023/08/10 03:52:02;;;;;;;15.20;7.23;;;12.60;1.00;;;;;;5050653;28;20917;-77
2023/08/10 03:55:00;;;;;;;29.73;8.13;;;12.70;1.00;;;;;;5055978;28;20394;-77
2023/08/10 04:01:30;;;;;;;16.10;7.40;;;12.60;1.00;;;;;;5046051;28;20414;-77
2023/08/10 04:04:30;;;;;;;19.90;8.10;;;12.50;1.00;;;;;;5043892;28;20421;-77
2023/08/10 04:07:00;;;;;;;28.27;9.10;;;12.50;1.00;;;;;;5055263;28;20503;-78
2023/08/10 04:09:30;;;;;;;18.70;8.23;;;12.50;1.00;;;;;;5055045;28;20446;-77
2023/08/10 04:12:00;;;;;;;16.20;8.60;;;12.50;1.00;;;;;;5043154;28;20418;-77
2023/08/10 04:15:00;;;;;;;19.23;8.30;;;12.60;1.00;;;;;;5048925;28;20527;-77
2023/08/10 04:17:30;;;;;;;19.70;7.33;;;12.70;1.00;;;;;;5048357;28;20792;-78
2023/08/10 04:20:30;;;;;;;18.77;8.10;;;12.60;1.00;;;;;;5055271;28;20390;-77
2023/08/10 04:23:30;;;;;;;18.03;8.23;;;12.70;1.00;;;;;;5055329;28;20501;-77
2023/08/10 04:29:54;;;;;;;33.50;7.50;;;12.70;1.00;;;;;;5052064;28;20509;-77
2023/08/10 04:32:54;;;;;;;15.03;6.50;;;12.80;1.00;;;;;;5055397;28;20460;-83
2023/08/10 04:35:54;;;;;;;18.90;6.43;;;12.90;1.00;;;;;;5070448;28;20457;-83
2023/08/10 04:39:00;;;;;;;19.83;8.17;;;12.90;1.00;;;;;;5051032;28;20440;-82
2023/08/10 04:41:30;;;;;;;16.50;7.30;;;12.90;1.00;;;;;;5040020;28;20478;-83
2023/08/10 04:44:01;;;;;;;20.13;7.77;;;12.90;1.00;;;;;;5041308;28;20423;-83
2023/08/10 04:46:33;;;;;;;25.47;8.73;;;13.00;1.00;;;;;;5054392;28;20458;-83
2023/08/10 04:49:00;;;;;;;20.00;8.33;;;13.10;1.00;;;;;;5052042;28;20430;-77
2023/08/10 04:52:00;;;;;;;20.70;8.00;;;13.30;1.00;;;;;;5054732;28;20493;-77
2023/08/10 04:54:30;;;;;;;17.97;7.50;;;13.40;1.00;;;;;;5044890;28;20381;-77
2023/08/10 04:57:00;;;;;;;24.30;6.87;;;13.50;1.00;;;;;;5050974;28;20437;-76
2023/08/10 05:00:02;;;;;;;15.47;6.57;;;13.70;1.00;;;;;;5045539;28;20430;-77
2023/08/10 05:03:00;;;;;;;31.10;8.67;;;13.80;1.00;;;;;;5054332;28;20435;-83
2023/08/10 05:06:00;;;;;;;21.73;6.70;;;13.80;1.00;;;;;;5040446;28;20458;-80
2023/08/10 05:08:48;;;;;;;17.63;6.93;;;13.80;1.00;;;;;;5043918;28;20815;-80
2023/08/10 05:11:30;;;;;;;12.27;6.07;;;13.90;1.00;;;;;;5038969;28;20473;-80
2023/08/10 05:14:00;;;;;;;19.43;5.93;;;14.00;1.00;;;;;;5034062;28;20980;-81
2023/08/10 05:16:30;;;;;;;12.53;5.57;;;14.30;1.00;;;;;;5048268;28;20956;-80
2023/08/10 05:18:56;;;;;;;12.97;5.03;;;14.40;1.00;;;;;;5036247;28;20442;-80
2023/08/10 05:21:42;;;;;;;12.10;5.97;;;14.60;1.00;;;;;;5051912;28;20476;-80
2023/08/10 05:24:18;;;;;;;11.47;5.43;;;14.80;1.00;;;;;;5052660;28;20191;-80
2023/08/10 05:26:44;;;;;;;13.70;5.73;;;14.90;1.00;;;;;;5051732;28;20511;-80
2023/08/10 05:29:09;;;;;;;20.70;6.33;;;15.10;1.00;;;;;;5039452;28;20949;-80
2023/08/10 05:31:35;;;;;;;14.80;5.10;;;15.20;1.00;;;;;;5044787;28;20191;-80
2023/08/10 05:34:24;;;;;;;15.70;4.50;;;15.30;1.00;;;;;;5037222;28;21005;-77
2023/08/10 05:36:54;;;;;;;9.30;4.47;;;15.40;1.00;;;;;;5042473;28;20189;-78
2023/08/10 05:39:24;;;;;;;6.70;4.20;;;15.60;1.00;;;;;;5041561;28;20432;-78
2023/08/10 05:41:50;;;;;;;5.70;3.27;;;15.60;1.00;;;;;;5047345;28;20804;-78
2023/08/10 05:44:54;;;;;;;9.23;3.67;;;15.70;1.00;;;;;;5050291;28;20418;-78
2023/08/10 05:47:20;;;;;;;532.00;141.43;;;15.90;1.00;;;;;;5047541;28;20257;-78
2023/08/10 05:53:37;;;;;;;14.23;4.00;;;16.10;1.00;;;;;;5042966;28;20402;-78
2023/08/10 05:56:30;;;;;;;9.40;3.60;;;16.20;1.00;;;;;;5040342;28;20907;-78
2023/08/10 05:59:18;;;;;;;12.03;4.40;;;16.30;1.00;;;;;;5051736;28;20423;-79
2023/08/10 06:02:00;;;;;;;6.57;3.80;;;16.40;1.00;;;;;;5046624;28;20397;-78
2023/08/10 06:05:00;;;;;;;10.47;5.17;;;16.50;1.00;;;;;;5047008;28;20825;-79
2023/08/10 06:07:26;;;;;;;10.77;3.40;;;16.70;1.00;;;;;;5053166;28;20475;-79
2023/08/10 06:10:00;;;;;;;11.93;4.10;;;16.70;1.00;;;;;;5048829;28;20493;-79
2023/08/10 06:12:26;;;;;;;9.67;4.80;;;16.70;1.00;;;;;;5043138;28;20617;-79
2023/08/10 06:15:00;;;;;;;9.47;4.30;;;16.80;1.00;;;;;;5052207;28;20451;-79
2023/08/10 06:17:31;;;;;;;20.20;4.60;;;16.90;1.00;;;;;;5049101;28;20655;-79
2023/08/10 06:20:04;;;;;;;11.40;5.33;;;16.90;1.00;;;;;;5049302;28;20423;-79
2023/08/10 06:26:01;;;;;;;10.07;4.50;;;16.90;1.00;;;;;;5033302;28;20554;-80
2023/08/10 06:29:00;;;;;;;13.73;4.57;;;16.80;1.00;;;;;;5048853;28;20427;-80
2023/08/10 06:31:31;;;;;;;10.33;4.70;;;16.80;1.00;;;;;;5050855;28;20511;-79
2023/08/10 06:34:02;;;;;;;11.83;4.50;;;16.80;1.00;;;;;;5048939;28;20497;-78
2023/08/10 06:36:33;;;;;;;10.63;4.20;;;16.90;1.00;;;;;;5041492;28;21183;-78
2023/08/10 06:39:18;;;;;;;14.30;5.10;;;16.90;1.00;;;;;;5052871;28;20405;-78
2023/08/10 06:42:00;;;;;;;9.40;4.77;;;17.00;1.00;;;;;;5053124;28;20412;-78
2023/08/10 06:44:30;;;;;;;7.80;4.63;;;17.00;1.00;;;;;;5052481;28;20841;-78
2023/08/10 06:47:00;;;;;;;7.93;4.63;;;17.10;1.00;;;;;;5044665;28;20475;-78
2023/08/10 06:50:00;;;;;;;26.03;5.10;;;17.50;1.00;;;;;;5047836;28;20482;-80
2023/08/10 06:52:30;;;;;;;14.93;4.27;;;17.60;1.00;;;;;;5041898;28;20496;-80
2023/08/10 06:55:00;;;;;;;21.47;4.43;;;18.00;1.00;;;;;;5052811;28;20823;-79
2023/08/10 06:57:31;;;;;;;7.40;4.30;;;18.30;1.00;;;;;;5052945;28;20909;-79
2023/08/10 07:00:07;;;;;;;14.30;4.50;;;18.60;1.00;;;;;;5043892;28;20926;-79
2023/08/10 07:03:00;;;;;;;20.47;5.40;;;18.80;1.00;;;;;;5043237;28;20831;-79
2023/08/10 07:05:31;;;;;;;7.40;4.23;;;19.10;1.00;;;;;;5048960;28;20532;-78
2023/08/10 07:07:57;;;;;;;7.97;4.30;;;19.30;1.00;;;;;;5042477;28;20449;-79
2023/08/10 07:10:23;;;;;;;11.00;4.00;;;19.60;1.00;;;;;;5053089;28;20418;-78
2023/08/10 07:13:12;;;;;;;8.50;4.40;;;19.80;1.00;;;;;;5060434;28;20181;-78
2023/08/10 07:16:00;;;;;;;15.30;4.53;;;20.00;1.00;;;;;;5043067;28;20430;-78
2023/08/10 07:18:30;;;;;;;8.97;4.50;;;20.10;1.00;;;;;;5056424;28;20435;-78
2023/08/10 07:21:06;;;;;;;14.60;5.17;;;20.00;1.00;;;;;;5054949;28;20875;-79
2023/08/10 07:26:56;;;;;;;11.80;3.90;;;20.30;1.00;;;;;;5042843;28;20529;-79
2023/08/10 07:29:55;;;;;;;8.90;4.13;;;20.40;1.00;;;;;;5052909;28;20436;-79
2023/08/10 07:32:21;;;;;;;8.53;4.43;;;20.50;1.00;;;;;;5054201;28;20913;-79
2023/08/10 07:34:50;;;;;;;6.93;4.70;;;;;;;;;;5055513;28;20456;-79
2023/08/10 07:41:06;;;;;;;7.97;4.50;;;20.90;1.00;;;;;;5039123;28;20450;-79
2023/08/10 07:46:54;;;;;;;11.50;4.23;;;21.00;1.00;;;;;;5045106;28;20989;-79
2023/08/10 07:53:02;;;;;;;8.63;4.40;;;21.10;1.00;;;;;;5055759;28;20491;-78
2023/08/10 07:56:06;;;;;;;9.20;4.50;;;21.20;1.00;;;;;;5053485;28;20433;-78
2023/08/10 07:58:31;;;;;;;7.50;4.97;;;21.20;1.00;;;;;;5044875;28;20686;-81
2023/08/10 08:00:57;;;;;;;8.37;4.00;;;21.10;1.00;;;;;;5043975;28;20999;-79
2023/08/10 08:03:23;;;;;;;18.13;5.60;;;21.20;1.00;;;;;;5048116;28;20668;-78
2023/08/10 08:05:49;;;;;;;14.07;5.30;;;21.20;1.00;;;;;;5050913;28;20522;-79
2023/08/10 08:08:15;;;;;;;10.23;4.40;;;21.20;1.00;;;;;;5054969;28;20532;-79
2023/08/10 08:10:42;;;;;;;7.90;5.00;;;21.30;1.00;;;;;;5052046;28;20822;-79
2023/08/10 08:13:12;;;;;;;11.20;4.63;;;21.30;1.00;;;;;;5041949;28;20187;-79
2023/08/10 08:22:23;;;;;;;10.57;4.27;;;21.60;1.00;;;;;;5042171;28;20453;-79
2023/08/10 08:31:34;;;;;;;4.43;3.77;;;22.00;1.00;;;;;;5043958;28;20438;-79
2023/08/10 08:44:19;;;;;;;3.87;3.27;;;22.10;1.00;;;;;;5047540;28;20453;-79
2023/08/10 08:47:24;;;;;;;3.30;2.37;;;22.10;1.00;;;;;;5051370;28;20487;-79
2023/08/10 08:53:12;;;;;;;3.90;2.97;;;22.10;1.00;;;;;;5054650;28;20391;-79
2023/08/10 08:55:42;;;;;;;2.60;2.40;;;21.90;1.00;;;;;;5054702;28;20411;-79
2023/08/10 08:58:46;;;;;;;3.33;2.77;;;21.80;1.00;;;;;;5054521;28;20466;-79
2023/08/10 09:01:19;;;;;;;5.87;2.53;;;21.70;1.00;;;;;;5031443;28;20965;-79
2023/08/10 09:03:48;;;;;;;3.93;2.90;;;21.70;1.00;;;;;;5048269;28;20903;-79
2023/08/10 09:06:37;;;;;;;5.03;2.67;;;21.80;1.00;;;;;;5052553;28;20457;-78
2023/08/10 09:12:37;;;;;;;8.77;2.93;;;21.90;1.00;;;;;;5052419;28;20808;-78
2023/08/10 09:18:32;;;;;;;2.90;2.40;;;21.90;1.00;;;;;;5052977;28;20537;-78
2023/08/10 09:27:42;;;;;;;6.77;2.43;;;22.20;1.00;;;;;;5050420;28;20472;-78
2023/08/10 09:31:00;;;;;;;4.40;2.97;;;22.20;1.00;;;;;;5053289;28;20822;-79
2023/08/10 09:37:06;;;;;;;9.17;2.77;;;22.40;1.00;;;;;;5053505;28;20421;-79
2023/08/10 09:40:07;;;;;;;9.67;2.60;;;22.50;1.00;;;;;;5053928;28;20395;-79
2023/08/10 09:46:11;;;;;;;8.33;2.90;;;22.70;1.00;;;;;;5051054;28;20471;-79
2023/08/10 09:55:30;;;;;;;10.00;3.50;;;23.10;1.00;;;;;;5044418;28;20534;-82
2023/08/10 10:08:04;;;;;;;4.60;2.80;;;23.40;1.00;;;;;;5033340;28;20438;-77
2023/08/10 10:13:52;;;;;;;6.97;2.80;;;23.70;1.00;;;;;;5053443;28;20392;-76
2023/08/10 10:17:00;;;;;;;8.27;2.90;;;23.70;1.00;;;;;;5052992;28;20436;-76
2023/08/10 10:22:47;;;;;;;4.37;1.80;;;24.20;1.00;;;;;;5041587;28;20451;-77
2023/08/10 10:25:55;;;;;;;6.50;2.77;;;24.20;1.00;;;;;;5068577;28;20413;-77
2023/08/10 10:28:21;;;;;;;9.07;2.50;;;24.60;1.00;;;;;;5048554;28;20255;-77
2023/08/10 10:31:21;;;;;;;4.30;2.47;;;24.70;1.00;;;;;;5053277;28;20786;-77
2023/08/10 10:34:01;;;;;;;3.60;2.43;;;24.70;1.00;;;;;;4991923;28;20450;-77
2023/08/10 10:36:26;;;;;;;4.83;2.20;;;24.90;1.00;;;;;;4996794;28;20963;-77
2023/08/10 10:39:04;;;;;;;7.03;2.30;;;24.90;1.00;;;;;;4990201;28;20419;-77
2023/08/10 10:41:35;;;;;;;6.17;2.83;;;25.00;1.00;;;;;;4990062;28;20189;-78
2023/08/10 10:44:12;;;;;;;3.43;2.40;;;25.20;1.00;;;;;;4974872;28;20911;-76
2023/08/10 10:46:40;;;;;;;4.40;2.23;;;25.00;1.00;;;;;;5001321;28;20473;-77
2023/08/10 10:55:51;;;;;;;7.00;2.60;;;24.20;1.00;;;;;;4995471;28;20476;-81
2023/08/10 10:58:29;;;;;;;3.50;2.23;;;24.00;1.00;;;;;;4977183;28;20440;-81
2023/08/10 11:04:30;;;;;;;3.13;2.50;;;23.60;1.00;;;;;;4995496;28;21010;-83
2023/08/10 11:07:03;;;;;;;4.80;2.53;;;23.40;1.00;;;;;;4994523;28;20554;-77
2023/08/10 11:10:06;;;;;;;12.00;3.60;;;23.20;1.00;;;;;;5026006;28;20458;-78
2023/08/10 11:16:00;;;;;;;7.40;3.00;;;23.20;1.00;;;;;;5056117;28;20455;-78
2023/08/10 11:18:37;;;;;;;5.50;3.00;;;23.40;1.00;;;;;;5051551;28;20445;-79
2023/08/10 11:25:00;;;;;;;3.00;2.53;;;23.70;1.00;;;;;;5056397;28;20483;-78
2023/08/10 11:27:30;;;;;;;3.53;1.90;;;23.80;1.00;;;;;;5044055;28;20511;-82
2023/08/10 11:33:25;;;;;;;2.10;2.00;;;23.80;1.00;;;;;;5037970;28;20409;-82
2023/08/10 11:36:01;;;;;;;6.17;2.43;;;23.90;1.00;;;;;;5045617;28;20447;-80
2023/08/10 11:41:49;;;;;;;3.20;2.17;;;24.00;1.00;;;;;;5055885;28;20505;-80
2023/08/10 11:45:06;;;;;;;5.53;2.63;;;24.40;1.00;;;;;;5055375;28;20504;-80
2023/08/10 11:48:26;;;;;;;3.47;2.50;;;24.70;1.00;;;;;;5055676;28;20466;-80
2023/08/10 11:55:07;;;;;;;8.93;2.80;;;25.00;1.00;;;;;;5045124;28;20443;-80
2023/08/10 12:01:30;;;;;;;3.17;2.40;;;25.10;1.00;;;;;;5054549;28;20767;-80
2023/08/10 12:04:14;;;;;;;4.13;2.10;;;25.20;1.00;;;;;;5051846;28;20466;-79
2023/08/10 12:07:03;;;;;;;6.07;2.23;;;25.20;1.00;;;;;;5055338;28;20455;-82
2023/08/10 12:09:58;;;;;;;2.80;2.30;;;25.30;1.00;;;;;;5055424;28;20432;-82
2023/08/10 12:15:50;;;;;;;2.57;2.27;;;25.30;1.00;;;;;;5035444;28;20978;-82
2023/08/10 12:28:21;;;;;;;5.80;2.10;;;25.40;1.00;;;;;;5035414;28;20782;-80
2023/08/10 12:34:09;;;;;;;7.70;3.13;;;25.60;1.00;;;;;;5055253;28;20661;-79
2023/08/10 12:37:06;;;;;;;5.80;1.80;;;25.90;1.00;;;;;;5052274;28;20524;-81
2023/08/10 12:46:56;;;;;;;4.17;2.70;;;26.10;1.00;;;;;;5051665;28;20465;-79
2023/08/10 12:49:36;;;;;;;2.27;2.00;;;26.00;1.00;;;;;;5054870;28;20809;-79
2023/08/10 12:55:24;;;;;;;13.33;2.50;;;25.80;1.00;;;;;;5047629;28;20492;-79
2023/08/10 13:01:11;;;;;;;3.60;1.50;;;26.10;1.00;;;;;;5041506;28;20251;-80
2023/08/10 13:04:06;;;;;;;2.03;1.93;;;26.10;1.00;;;;;;5052152;28;20951;-79
2023/08/10 13:07:00;;;;;;;4.50;2.30;;;26.30;1.00;;;;;;5046100;28;20213;-79
2023/08/10 13:09:33;;;;;;;5.10;2.43;;;26.40;1.00;;;;;;5040798;28;20456;-80
2023/08/10 13:11:59;;;;;;;3.43;2.37;;;26.40;1.00;;;;;;5048712;28;20454;-80
2023/08/10 13:14:30;;;;;;;7.53;2.53;;;26.40;1.00;;;;;;5047013;28;20493;-80
2023/08/10 13:16:56;;;;;;;10.40;2.37;;;26.50;1.00;;;;;;5046866;28;20577;-79
2023/08/10 13:19:22;;;;;;;2.53;2.33;;;26.40;1.00;;;;;;5047089;28;20514;-80
2023/08/10 13:21:49;;;;;;;1.70;1.60;;;26.50;1.00;;;;;;5037897;28;20183;-80
2023/08/10 13:24:20;;;;;;;169.13;22.77;;;26.50;1.00;;;;;;5032371;28;20177;-83
2023/08/10 13:27:30;;;;;;;7.60;2.77;;;26.50;1.00;;;;;;5045628;28;20476;-82
2023/08/10 13:30:00;;;;;;;18.30;4.10;;;26.50;1.00;;;;;;5051482;28;20437;-83
2023/08/10 13:32:31;;;;;;;3.10;1.80;;;26.50;1.00;;;;;;5041659;28;20435;-83
2023/08/10 13:35:30;;;;;;;1.93;1.83;;;26.80;1.00;;;;;;5048088;28;20424;-87
2023/08/10 13:38:00;;;;;;;2.23;1.77;;;27.10;1.00;;;;;;5051779;28;20446;-85
2023/08/10 13:40:31;;;;;;;3.00;2.00;;;27.20;1.00;;;;;;5054083;28;20897;-84
2023/08/10 13:43:01;;;;;;;2.10;2.00;;;;;;;;;;5059591;28;20986;-84
2023/08/10 13:45:31;;;;;;;2.23;2.03;;;27.10;1.00;;;;;;5042091;28;20430;-85
2023/08/10 13:48:03;;;;;;;2.47;1.80;;;27.10;1.00;;;;;;5053313;28;20551;-83
2023/08/10 13:50:31;;;;;;;3.33;2.10;;;26.90;1.00;;;;;;5050967;28;20428;-84
2023/08/10 13:53:24;;;;;;;4.30;1.73;;;26.90;1.00;;;;;;5052376;28;20419;-84
2023/08/10 13:55:55;;;;;;;2.30;1.97;;;27.10;1.00;;;;;;5046235;28;20485;-85
2023/08/10 13:58:42;;;;;;;1.70;1.60;;;27.10;1.00;;;;;;5044595;28;20436;-87
2023/08/10 14:05:00;;;;;;;3.00;2.20;;;27.40;1.00;;;;;;5053987;28;20826;-87
2023/08/10 14:07:26;;;;;;;5.03;2.00;;;;;;;;;;5052498;28;20483;-87
2023/08/10 14:16:18;;;;;;;10.70;2.77;;;;;;;;;;5041250;28;20440;-86
2023/08/10 14:18:44;;;;;;;2.07;1.93;;;;;;;;;;5039168;28;20516;-86
2023/08/10 14:21:25;;;;;;;3.07;1.80;;;;;;;;;;5052761;28;20420;-84
2023/08/10 14:24:07;;;;;;;2.83;2.10;;;27.50;1.00;;;;;;5051582;28;20417;-81
2023/08/10 14:30:30;;;;;;;7.47;2.57;;;27.70;1.00;;;;;;5051899;28;20418;-79
2023/08/10 14:32:56;;;;;;;6.87;2.17;;;27.80;1.00;;;;;;5048699;28;20528;-81
2023/08/10 14:35:22;;;;;;;2.80;2.00;;;27.90;1.00;;;;;;5050795;28;20511;-79
2023/08/10 14:37:49;;;;;;;10.57;1.70;;;28.00;1.00;;;;;;5041155;28;20681;-81
2023/08/10 14:43:37;;;;;;;3.43;2.00;;;;;;;;;;5043895;28;20423;-85
2023/08/10 14:49:25;;;;;;;6.63;1.80;;;28.20;1.00;;;;;;5051624;28;20399;-82
2023/08/10 14:52:36;;;;;;;7.90;1.90;;;28.10;1.00;;;;;;5051741;28;20425;-82
2023/08/10 14:58:24;;;;;;;1.57;1.47;;;28.00;1.00;;;;;;5050405;28;21279;-81
2023/08/10 15:01:12;;;;;;;2.10;1.90;;;28.00;1.00;;;;;;5052712;28;20416;-82
2023/08/10 15:07:01;;;;;;;3.73;1.80;;;28.10;1.00;;;;;;5047430;28;20471;-80
2023/08/10 15:13:30;;;;;;;4.70;1.60;;;27.90;1.00;;;;;;5034041;28;20465;-87
2023/08/10 15:16:36;;;;;;;4.30;1.80;;;28.00;1.00;;;;;;5032783;28;20513;-84
2023/08/10 15:22:25;;;;;;;2.30;2.07;;;28.40;1.00;;;;;;5043530;28;20486;-85
2023/08/10 15:25:12;;;;;;;1.83;1.70;;;28.90;1.00;;;;;;5052843;28;20580;-85
2023/08/10 15:27:49;;;;;;;3.40;2.00;;;31.30;1.00;;;;;;5051209;28;20826;-85
2023/08/10 15:30:19;;;;;;;1.60;1.50;;;32.40;1.00;;;;;;5052255;28;20509;-85
2023/08/10 15:32:44;;;;;;;3.90;2.10;;;34.40;1.00;;;;;;5047224;28;20434;-85
2023/08/10 15:35:13;;;;;;;4.03;1.73;;;36.70;1.00;;;;;;5054727;28;20504;-86
2023/08/10 15:38:06;;;;;;;2.93;1.43;;;36.70;1.00;;;;;;5045435;28;20194;-86
2023/08/10 15:40:37;;;;;;;6.63;1.43;;;36.70;1.00;;;;;;5070586;28;20414;-85
2023/08/10 15:43:13;;;;;;;1.70;1.53;;;;;;;;;;5046490;28;20555;-87
2023/08/10 15:45:39;;;;;;;3.20;2.03;;;;;;;;;;5053055;28;20440;-86
2023/08/10 15:48:05;;;;;;;2.53;1.73;;;37.70;1.00;;;;;;5051509;28;20948;-87
2023/08/10 15:50:31;;;;;;;3.60;1.30;;;39.00;1.00;;;;;;5052912;28;20445;-87
2023/08/10 15:56:19;;;;;;;11.90;1.57;;;;;;;;;;5049180;28;20203;-86
2023/08/10 16:02:48;;;;;;;2.37;1.27;;;44.20;1.00;;;;;;5050099;28;20425;-82
2023/08/10 16:05:55;;;;;;;1.53;1.20;;;45.10;1.00;;;;;;5051095;28;20452;-82
2023/08/10 16:08:25;;;;;;;1.20;1.10;;;45.30;1.00;;;;;;5051789;28;21107;-82
2023/08/10 16:15:00;;;;;;;1.17;1.00;;;45.90;1.00;;;;;;5047358;28;20553;-82
2023/08/10 16:21:36;;;;;;;1.20;1.20;;;46.70;1.00;;;;;;5043733;28;20403;-83
2023/08/10 16:24:02;;;;;;;3.73;1.20;;;47.20;1.00;;;;;;5034743;28;20431;-82
2023/08/10 16:26:37;;;;;;;5.63;1.77;;;47.50;1.00;;;;;;5051353;28;20544;-82
2023/08/10 16:32:25;;;;;;;6.87;1.23;;;47.90;1.00;;;;;;5050321;28;20797;-87
2023/08/10 16:38:36;;;;;;;1.30;1.20;;;47.00;1.00;;;;;;5053251;28;20475;-86
2023/08/10 16:41:36;;;;;;;7.90;1.80;;;47.30;1.00;;;;;;5054891;28;20395;-86
2023/08/10 16:50:47;;;;;;;1.23;1.00;;;;;;;;;;5048087;28;20398;-88
2023/08/10 16:53:25;;;;;;;6.03;1.90;;;;;;;;;;5035308;28;20977;-88
2023/08/10 17:02:35;;;;;;;1.27;1.17;;;45.60;1.00;;;;;;5044043;28;20393;-84
2023/08/10 17:05:01;;;;;;;4.53;1.73;;;45.60;1.00;;;;;;5054462;28;20386;-85
2023/08/10 17:07:27;;;;;;;5.63;1.80;;;45.50;1.00;;;;;;5051362;28;20706;-84
2023/08/10 17:09:57;;;;;;;5.90;1.97;;;45.40;1.00;;;;;;5053466;28;20442;-85
2023/08/10 17:15:45;;;;;;;4.50;1.67;;;45.20;1.00;;;;;;5043022;28;20501;-85
2023/08/10 17:18:36;;;;;;;7.33;1.77;;;44.00;1.00;;;;;;5053132;28;20434;-85
2023/08/10 17:25:00;;;;;;;5.20;1.73;;;42.50;1.00;;;;;;5053758;28;20424;-83
2023/08/10 17:31:12;;;;;;;15.03;2.60;;;40.30;1.00;;;;;;5053815;28;20409;-81
2023/08/10 17:37:30;;;;;;;2.93;1.30;;;38.30;1.00;;;;;;5053427;28;20446;-81
2023/08/10 17:40:30;;;;;;;6.70;1.83;;;37.20;1.00;;;;;;5053827;28;20410;-80
2023/08/10 17:46:37;;;;;;;13.53;2.27;;;34.40;1.00;;;;;;5045301;28;20456;-83
2023/08/10 17:52:25;;;;;;;11.03;1.80;;;32.70;1.00;;;;;;5042707;28;20389;-83
2023/08/10 17:55:25;;;;;;;16.80;2.30;;;31.60;1.00;;;;;;5056502;28;20426;-83
2023/08/10 18:01:14;;;;;;;12.40;2.93;;;29.60;1.00;;;;;;5051639;28;20843;-84
2023/08/10 18:03:40;;;;;;;5.77;2.50;;;28.70;1.00;;;;;;5045340;28;20512;-83
2023/08/10 18:09:28;;;;;;;12.10;2.70;;;27.10;1.00;;;;;;5038822;28;20473;-86
2023/08/10 18:11:53;;;;;;;11.93;2.40;;;26.40;1.00;;;;;;5049777;28;20891;-86
2023/08/10 18:18:12;;;;;;;6.30;2.93;;;25.80;1.00;;;;;;5041298;28;20190;-82
2023/08/10 18:20:38;;;;;;;10.60;3.07;;;25.20;1.00;;;;;;5038240;28;20426;-82
2023/08/10 18:23:07;;;;;;;11.77;3.43;;;24.90;1.00;;;;;;5049965;28;20439;-82
2023/08/10 18:25:37;;;;;;;4.23;3.20;;;24.50;1.00;;;;;;5037645;28;20619;-81
2023/08/10 18:28:13;;;;;;;10.93;3.07;;;24.20;1.00;;;;;;5038934;28;20515;-81
2023/08/10 18:30:38;;;;;;;9.83;3.27;;;23.90;1.00;;;;;;5049041;28;20417;-79
2023/08/10 18:33:13;;;;;;;14.03;3.10;;;23.60;1.00;;;;;;5052197;28;20494;-79
2023/08/10 18:35:49;;;;;;;7.40;2.80;;;23.30;1.00;;;;;;5050434;28;20200;-79
2023/08/10 18:39:00;;;;;;;22.63;4.23;;;23.10;1.00;;;;;;5052640;28;20421;-79
2023/08/10 18:42:00;;;;;;;23.83;3.93;;;22.80;1.00;;;;;;5042081;28;20432;-79
2023/08/10 18:45:00;;;;;;;15.40;3.67;;;22.60;1.00;;;;;;5034193;28;20887;-83
2023/08/10 18:47:31;;;;;;;7.77;3.00;;;22.30;1.00;;;;;;5040244;28;20463;-80
2023/08/10 18:50:42;;;;;;;9.67;3.60;;;21.80;1.00;;;;;;5042956;28;20525;-83
2023/08/10 18:53:30;;;;;;;6.70;3.20;;;21.60;1.00;;;;;;5049567;28;20831;-83
2023/08/10 18:56:30;;;;;;;8.73;3.40;;;21.30;1.00;;;;;;5037747;28;20427;-83
2023/08/10 18:59:13;;;;;;;12.43;3.73;;;;;;;;;;5038935;28;20503;-82
2023/08/10 19:01:49;;;;;;;4.70;2.83;;;;;;;;;;5053220;28;20428;-83
2023/08/10 19:04:16;;;;;;;12.03;2.80;;;;;;;;;;5042378;28;20407;-83
2023/08/10 19:07:03;;;;;;;8.73;3.00;;;20.70;1.00;;;;;;5048917;28;20513;-83
2023/08/10 19:09:29;;;;;;;4.60;3.03;;;20.70;1.00;;;;;;5059524;28;20459;-82
2023/08/10 19:12:01;;;;;;;3.73;2.60;;;20.40;1.00;;;;;;5052028;28;20417;-82
2023/08/10 19:15:01;;;;;;;5.93;3.00;;;20.30;1.00;;;;;;5048933;28;20431;-82